sensor_id;sensor_type;location;lat;lon;timestamp;P1;durP1;ratioP1;P2;durP2;ratioP2
17504;SDS011;8870;50.950;11.762;2023-04-29T00:07:01;4.10;;;3.70;;
17504;SDS011;8870;50.950;11.762;2023-04-29T00:12:19;4.05;;;3.63;;
17504;SDS011;8870;50.950;11.762;2023-04-29T00:17:55;3.97;;;3.60;;
17504;SDS011;8870;50.950;11.762;2023-04-29T00:23:13;3.97;;;3.58;;
17504;SDS011;8870;50.950;11.762;2023-04-29T00:28:45;3.90;;;3.60;;
17504;SDS011;8870;50.950;11.762;2023-04-29T00:34:06;3.60;;;3.30;;
17504;SDS011;8870;50.950;11.762;2023-04-29T00:39:38;3.58;;;3.28;;
17504;SDS011;8870;50.950;11.762;2023-04-29T00:44:57;3.78;;;3.47;;
17504;SDS011;8870;50.950;11.762;2023-04-29T00:50:32;3.40;;;3.10;;
17504;SDS011;8870;50.950;11.762;2023-04-29T00:55:50;3.95;;;3.65;;
17504;SDS011;8870;50.950;11.762;2023-04-29T01:01:22;3.92;;;3.63;;
17504;SDS011;8870;50.950;11.762;2023-04-29T01:06:48;3.60;;;3.30;;
17504;SDS011;8870;50.950;11.762;2023-04-29T01:12:30;3.72;;;3.40;;
17504;SDS011;8870;50.950;11.762;2023-04-29T01:17:58;3.30;;;3.03;;
17504;SDS011;8870;50.950;11.762;2023-04-29T01:23:33;3.72;;;3.42;;
17504;SDS011;8870;50.950;11.762;2023-04-29T01:28:53;3.80;;;3.50;;
17504;SDS011;8870;50.950;11.762;2023-04-29T01:34:34;4.20;;;3.80;;
17504;SDS011;8870;50.950;11.762;2023-04-29T01:40:04;4.40;;;4.07;;
17504;SDS011;8870;50.950;11.762;2023-04-29T01:45:55;4.50;;;4.10;;
17504;SDS011;8870;50.950;11.762;2023-04-29T01:51:14;4.60;;;4.20;;
17504;SDS011;8870;50.950;11.762;2023-04-29T01:56:50;4.47;;;4.07;;
17504;SDS011;8870;50.950;11.762;2023-04-29T02:02:33;4.70;;;4.30;;
17504;SDS011;8870;50.950;11.762;2023-04-29T02:08:20;4.43;;;4.03;;
17504;SDS011;8870;50.950;11.762;2023-04-29T02:13:41;4.90;;;4.45;;
17504;SDS011;8870;50.950;11.762;2023-04-29T02:19:13;5.30;;;4.70;;
17504;SDS011;8870;50.950;11.762;2023-04-29T02:24:41;4.75;;;4.35;;
17504;SDS011;8870;50.950;11.762;2023-04-29T02:30:15;5.05;;;4.63;;
17504;SDS011;8870;50.950;11.762;2023-04-29T02:35:40;4.82;;;4.40;;
17504;SDS011;8870;50.950;11.762;2023-04-29T02:41:15;5.03;;;4.28;;
17504;SDS011;8870;50.950;11.762;2023-04-29T02:46:36;5.03;;;4.60;;
17504;SDS011;8870;50.950;11.762;2023-04-29T02:52:08;5.13;;;4.13;;
17504;SDS011;8870;50.950;11.762;2023-04-29T02:57:27;4.55;;;4.13;;
17504;SDS011;8870;50.950;11.762;2023-04-29T03:03:03;4.53;;;4.13;;
17504;SDS011;8870;50.950;11.762;2023-04-29T03:08:34;5.30;;;4.50;;
17504;SDS011;8870;50.950;11.762;2023-04-29T03:13:52;4.47;;;4.07;;
17504;SDS011;8870;50.950;11.762;2023-04-29T03:19:27;5.20;;;4.35;;
17504;SDS011;8870;50.950;11.762;2023-04-29T03:24:46;5.00;;;4.50;;
17504;SDS011;8870;50.950;11.762;2023-04-29T03:30:18;4.70;;;4.30;;
17504;SDS011;8870;50.950;11.762;2023-04-29T03:35:39;4.63;;;4.20;;
17504;SDS011;8870;50.950;11.762;2023-04-29T03:41:41;5.30;;;4.72;;
17504;SDS011;8870;50.950;11.762;2023-04-29T03:47:00;5.43;;;4.82;;
17504;SDS011;8870;50.950;11.762;2023-04-29T03:52:34;6.50;;;5.10;;
17504;SDS011;8870;50.950;11.762;2023-04-29T03:57:54;4.95;;;4.45;;
17504;SDS011;8870;50.950;11.762;2023-04-29T04:03:25;5.18;;;4.78;;
17504;SDS011;8870;50.950;11.762;2023-04-29T04:08:59;5.60;;;5.10;;
17504;SDS011;8870;50.950;11.762;2023-04-29T04:14:18;5.30;;;4.80;;
17504;SDS011;8870;50.950;11.762;2023-04-29T04:19:50;5.30;;;4.80;;
17504;SDS011;8870;50.950;11.762;2023-04-29T04:25:12;5.20;;;4.70;;
17504;SDS011;8870;50.950;11.762;2023-04-29T04:31:09;4.93;;;4.38;;
17504;SDS011;8870;50.950;11.762;2023-04-29T04:36:29;4.85;;;4.20;;
17504;SDS011;8870;50.950;11.762;2023-04-29T04:42:05;5.03;;;4.53;;
17504;SDS011;8870;50.950;11.762;2023-04-29T04:47:25;5.57;;;3.90;;
17504;SDS011;8870;50.950;11.762;2023-04-29T04:53:01;6.10;;;3.97;;
17504;SDS011;8870;50.950;11.762;2023-04-29T04:58:29;4.88;;;4.38;;
17504;SDS011;8870;50.950;11.762;2023-04-29T05:04:00;4.75;;;4.20;;
17504;SDS011;8870;50.950;11.762;2023-04-29T05:09:18;4.10;;;3.70;;
17504;SDS011;8870;50.950;11.762;2023-04-29T05:14:54;4.13;;;3.60;;
17504;SDS011;8870;50.950;11.762;2023-04-29T05:20:13;3.90;;;3.50;;
17504;SDS011;8870;50.950;11.762;2023-04-29T05:25:45;3.90;;;3.50;;
17504;SDS011;8870;50.950;11.762;2023-04-29T05:31:09;3.45;;;3.15;;
17504;SDS011;8870;50.950;11.762;2023-04-29T05:36:43;3.13;;;2.83;;
17504;SDS011;8870;50.950;11.762;2023-04-29T05:42:07;2.95;;;2.75;;
17504;SDS011;8870;50.950;11.762;2023-04-29T05:47:41;3.30;;;3.00;;
17504;SDS011;8870;50.950;11.762;2023-04-29T05:58:34;3.03;;;2.83;;
17504;SDS011;8870;50.950;11.762;2023-04-29T06:03:55;3.25;;;2.83;;
17504;SDS011;8870;50.950;11.762;2023-04-29T06:09:38;3.13;;;2.85;;
17504;SDS011;8870;50.950;11.762;2023-04-29T06:15:00;3.78;;;3.17;;
17504;SDS011;8870;50.950;11.762;2023-04-29T06:20:34;3.25;;;3.00;;
17504;SDS011;8870;50.950;11.762;2023-04-29T06:25:53;3.60;;;3.30;;
17504;SDS011;8870;50.950;11.762;2023-04-29T06:31:26;3.25;;;3.00;;
17504;SDS011;8870;50.950;11.762;2023-04-29T06:36:51;3.35;;;2.90;;
17504;SDS011;8870;50.950;11.762;2023-04-29T06:42:50;3.65;;;3.30;;
17504;SDS011;8870;50.950;11.762;2023-04-29T06:48:37;3.95;;;3.55;;
17504;SDS011;8870;50.950;11.762;2023-04-29T06:54:11;4.38;;;3.60;;
17504;SDS011;8870;50.950;11.762;2023-04-29T06:59:29;3.90;;;3.60;;
17504;SDS011;8870;50.950;11.762;2023-04-29T07:05:02;3.83;;;3.42;;
17504;SDS011;8870;50.950;11.762;2023-04-29T07:10:37;4.07;;;3.25;;
17504;SDS011;8870;50.950;11.762;2023-04-29T07:15:57;3.60;;;3.30;;
17504;SDS011;8870;50.950;11.762;2023-04-29T07:21:30;3.97;;;3.67;;
17504;SDS011;8870;50.950;11.762;2023-04-29T07:26:53;3.90;;;3.60;;
17504;SDS011;8870;50.950;11.762;2023-04-29T07:32:24;3.88;;;3.58;;
17504;SDS011;8870;50.950;11.762;2023-04-29T07:37:42;4.63;;;3.90;;
17504;SDS011;8870;50.950;11.762;2023-04-29T07:43:16;4.07;;;3.65;;
17504;SDS011;8870;50.950;11.762;2023-04-29T07:48:36;3.35;;;3.05;;
17504;SDS011;8870;50.950;11.762;2023-04-29T07:54:11;2.63;;;2.40;;
17504;SDS011;8870;50.950;11.762;2023-04-29T07:59:33;3.70;;;2.60;;
17504;SDS011;8870;50.950;11.762;2023-04-29T08:05:06;2.88;;;2.67;;
17504;SDS011;8870;50.950;11.762;2023-04-29T08:10:38;2.97;;;2.70;;
17504;SDS011;8870;50.950;11.762;2023-04-29T08:16:00;3.22;;;2.53;;
17504;SDS011;8870;50.950;11.762;2023-04-29T08:21:32;2.40;;;2.20;;
17504;SDS011;8870;50.950;11.762;2023-04-29T08:26:51;3.22;;;2.40;;
17504;SDS011;8870;50.950;11.762;2023-04-29T08:32:25;3.15;;;2.85;;
17504;SDS011;8870;50.950;11.762;2023-04-29T08:37:44;2.78;;;2.53;;
17504;SDS011;8870;50.950;11.762;2023-04-29T08:43:14;3.88;;;2.20;;
17504;SDS011;8870;50.950;11.762;2023-04-29T08:48:38;2.33;;;2.13;;
17504;SDS011;8870;50.950;11.762;2023-04-29T08:54:10;2.88;;;2.47;;
17504;SDS011;8870;50.950;11.762;2023-04-29T08:59:28;2.70;;;2.50;;
17504;SDS011;8870;50.950;11.762;2023-04-29T09:05:07;2.45;;;2.25;;
17504;SDS011;8870;50.950;11.762;2023-04-29T09:10:40;3.50;;;2.67;;
17504;SDS011;8870;50.950;11.762;2023-04-29T09:15:59;2.33;;;2.13;;
17504;SDS011;8870;50.950;11.762;2023-04-29T09:21:35;3.15;;;2.40;;
17504;SDS011;8870;50.950;11.762;2023-04-29T09:26:53;2.45;;;2.15;;
17504;SDS011;8870;50.950;11.762;2023-04-29T09:32:26;2.38;;;2.17;;
17504;SDS011;8870;50.950;11.762;2023-04-29T09:37:49;2.45;;;2.25;;
17504;SDS011;8870;50.950;11.762;2023-04-29T09:43:20;2.63;;;2.28;;
17504;SDS011;8870;50.950;11.762;2023-04-29T09:48:38;2.33;;;2.10;;
17504;SDS011;8870;50.950;11.762;2023-04-29T09:54:16;2.35;;;2.10;;
17504;SDS011;8870;50.950;11.762;2023-04-29T09:59:38;2.50;;;2.30;;
17504;SDS011;8870;50.950;11.762;2023-04-29T10:05:19;3.10;;;2.35;;
17504;SDS011;8870;50.950;11.762;2023-04-29T10:10:55;2.85;;;2.65;;
17504;SDS011;8870;50.950;11.762;2023-04-29T10:16:20;2.80;;;2.60;;
17504;SDS011;8870;50.950;11.762;2023-04-29T10:21:57;2.97;;;2.70;;
17504;SDS011;8870;50.950;11.762;2023-04-29T10:27:24;2.72;;;2.53;;
17504;SDS011;8870;50.950;11.762;2023-04-29T10:32:57;3.00;;;2.70;;
17504;SDS011;8870;50.950;11.762;2023-04-29T10:38:19;2.80;;;2.60;;
17504;SDS011;8870;50.950;11.762;2023-04-29T10:44:00;2.80;;;2.60;;
17504;SDS011;8870;50.950;11.762;2023-04-29T10:49:18;2.95;;;2.65;;
17504;SDS011;8870;50.950;11.762;2023-04-29T10:55:00;2.90;;;2.60;;
17504;SDS011;8870;50.950;11.762;2023-04-29T11:00:23;3.13;;;2.53;;
17504;SDS011;8870;50.950;11.762;2023-04-29T11:06:07;2.80;;;2.60;;
17504;SDS011;8870;50.950;11.762;2023-04-29T11:11:39;2.80;;;2.60;;
17504;SDS011;8870;50.950;11.762;2023-04-29T11:17:09;2.80;;;2.60;;
17504;SDS011;8870;50.950;11.762;2023-04-29T11:22:44;3.47;;;2.88;;
17504;SDS011;8870;50.950;11.762;2023-04-29T11:28:08;3.35;;;3.00;;
17504;SDS011;8870;50.950;11.762;2023-04-29T11:33:42;3.30;;;3.00;;
17504;SDS011;8870;50.950;11.762;2023-04-29T11:39:01;4.82;;;4.40;;
17504;SDS011;8870;50.950;11.762;2023-04-29T11:44:34;8.48;;;7.43;;
17504;SDS011;8870;50.950;11.762;2023-04-29T11:50:00;9.40;;;8.40;;
17504;SDS011;8870;50.950;11.762;2023-04-29T11:55:34;9.57;;;8.57;;
17504;SDS011;8870;50.950;11.762;2023-04-29T12:00:53;10.63;;;8.82;;
17504;SDS011;8870;50.950;11.762;2023-04-29T12:06:28;10.10;;;9.10;;
17504;SDS011;8870;50.950;11.762;2023-04-29T12:11:47;9.00;;;8.10;;
17504;SDS011;8870;50.950;11.762;2023-04-29T12:17:21;7.30;;;6.60;;
17504;SDS011;8870;50.950;11.762;2023-04-29T12:22:43;6.93;;;6.22;;
17504;SDS011;8870;50.950;11.762;2023-04-29T12:28:16;5.68;;;5.18;;
17504;SDS011;8870;50.950;11.762;2023-04-29T12:33:40;4.72;;;4.30;;
17504;SDS011;8870;50.950;11.762;2023-04-29T12:39:15;3.58;;;3.03;;
17504;SDS011;8870;50.950;11.762;2023-04-29T12:44:36;3.13;;;2.67;;
17504;SDS011;8870;50.950;11.762;2023-04-29T12:50:08;2.83;;;2.60;;
17504;SDS011;8870;50.950;11.762;2023-04-29T12:55:30;2.20;;;2.08;;
17504;SDS011;8870;50.950;11.762;2023-04-29T13:01:01;2.40;;;2.20;;
17504;SDS011;8870;50.950;11.762;2023-04-29T13:06:25;2.20;;;2.00;;
17504;SDS011;8870;50.950;11.762;2023-04-29T13:12:02;1.92;;;1.83;;
17504;SDS011;8870;50.950;11.762;2023-04-29T13:17:23;2.30;;;2.10;;
17504;SDS011;8870;50.950;11.762;2023-04-29T13:22:53;2.17;;;1.90;;
17504;SDS011;8870;50.950;11.762;2023-04-29T13:28:14;2.13;;;1.92;;
17504;SDS011;8870;50.950;11.762;2023-04-29T13:33:45;1.70;;;1.60;;
17504;SDS011;8870;50.950;11.762;2023-04-29T13:39:04;2.83;;;1.80;;
17504;SDS011;8870;50.950;11.762;2023-04-29T13:44:39;3.13;;;1.65;;
17504;SDS011;8870;50.950;11.762;2023-04-29T13:50:01;1.80;;;1.70;;
17504;SDS011;8870;50.950;11.762;2023-04-29T13:55:51;1.65;;;1.48;;
17504;SDS011;8870;50.950;11.762;2023-04-29T14:01:15;1.60;;;1.50;;
17504;SDS011;8870;50.950;11.762;2023-04-29T14:06:51;1.63;;;1.42;;
17504;SDS011;8870;50.950;11.762;2023-04-29T14:12:10;1.50;;;1.40;;
17504;SDS011;8870;50.950;11.762;2023-04-29T14:17:43;2.00;;;1.90;;
17504;SDS011;8870;50.950;11.762;2023-04-29T14:23:04;1.50;;;1.40;;
17504;SDS011;8870;50.950;11.762;2023-04-29T14:33:52;2.10;;;1.90;;
17504;SDS011;8870;50.950;11.762;2023-04-29T14:39:24;1.70;;;1.60;;
17504;SDS011;8870;50.950;11.762;2023-04-29T14:44:42;1.85;;;1.60;;
17504;SDS011;8870;50.950;11.762;2023-04-29T14:50:17;2.03;;;1.63;;
17504;SDS011;8870;50.950;11.762;2023-04-29T14:55:37;3.03;;;1.92;;
17504;SDS011;8870;50.950;11.762;2023-04-29T15:01:08;2.80;;;2.00;;
17504;SDS011;8870;50.950;11.762;2023-04-29T15:06:35;2.92;;;2.15;;
17504;SDS011;8870;50.950;11.762;2023-04-29T15:12:08;2.00;;;1.80;;
17504;SDS011;8870;50.950;11.762;2023-04-29T15:17:28;1.98;;;1.42;;
17504;SDS011;8870;50.950;11.762;2023-04-29T15:23:01;1.70;;;1.60;;
17504;SDS011;8870;50.950;11.762;2023-04-29T15:28:20;1.88;;;1.73;;
17504;SDS011;8870;50.950;11.762;2023-04-29T15:33:52;1.48;;;1.38;;
17504;SDS011;8870;50.950;11.762;2023-04-29T15:39:15;1.95;;;1.70;;
17504;SDS011;8870;50.950;11.762;2023-04-29T15:44:48;1.70;;;1.50;;
17504;SDS011;8870;50.950;11.762;2023-04-29T15:50:06;2.45;;;1.80;;
17504;SDS011;8870;50.950;11.762;2023-04-29T15:55:40;2.25;;;1.90;;
17504;SDS011;8870;50.950;11.762;2023-04-29T16:00:59;2.97;;;2.10;;
17504;SDS011;8870;50.950;11.762;2023-04-29T16:06:29;1.77;;;1.50;;
17504;SDS011;8870;50.950;11.762;2023-04-29T16:12:04;1.80;;;1.70;;
17504;SDS011;8870;50.950;11.762;2023-04-29T16:17:25;2.42;;;2.10;;
17504;SDS011;8870;50.950;11.762;2023-04-29T16:22:56;2.00;;;1.80;;
17504;SDS011;8870;50.950;11.762;2023-04-29T16:28:16;2.95;;;2.28;;
17504;SDS011;8870;50.950;11.762;2023-04-29T16:33:48;3.03;;;2.20;;
17504;SDS011;8870;50.950;11.762;2023-04-29T16:39:06;3.97;;;2.33;;
17504;SDS011;8870;50.950;11.762;2023-04-29T16:44:40;3.95;;;2.83;;
17504;SDS011;8870;50.950;11.762;2023-04-29T16:49:59;4.30;;;2.50;;
17504;SDS011;8870;50.950;11.762;2023-04-29T16:55:32;3.83;;;2.53;;
17504;SDS011;8870;50.950;11.762;2023-04-29T17:00:53;3.08;;;2.83;;
17504;SDS011;8870;50.950;11.762;2023-04-29T17:06:26;4.13;;;2.85;;
17504;SDS011;8870;50.950;11.762;2023-04-29T17:12:00;2.95;;;2.75;;
17504;SDS011;8870;50.950;11.762;2023-04-29T17:17:22;3.33;;;2.80;;
17504;SDS011;8870;50.950;11.762;2023-04-29T17:22:54;3.10;;;2.72;;
17504;SDS011;8870;50.950;11.762;2023-04-29T17:28:12;4.47;;;3.10;;
17504;SDS011;8870;50.950;11.762;2023-04-29T17:33:46;2.88;;;2.65;;
17504;SDS011;8870;50.950;11.762;2023-04-29T17:39:09;3.20;;;2.90;;
17504;SDS011;8870;50.950;11.762;2023-04-29T17:44:40;4.20;;;3.10;;
17504;SDS011;8870;50.950;11.762;2023-04-29T17:50:00;3.70;;;3.20;;
17504;SDS011;8870;50.950;11.762;2023-04-29T17:55:33;3.33;;;3.00;;
17504;SDS011;8870;50.950;11.762;2023-04-29T18:00:51;4.20;;;3.63;;
17504;SDS011;8870;50.950;11.762;2023-04-29T18:06:24;3.58;;;3.28;;
17504;SDS011;8870;50.950;11.762;2023-04-29T18:11:57;3.60;;;3.28;;
17504;SDS011;8870;50.950;11.762;2023-04-29T18:17:16;3.90;;;3.50;;
17504;SDS011;8870;50.950;11.762;2023-04-29T18:22:50;4.90;;;3.35;;
17504;SDS011;8870;50.950;11.762;2023-04-29T18:28:09;4.05;;;3.65;;
17504;SDS011;8870;50.950;11.762;2023-04-29T18:33:41;3.95;;;3.38;;
17504;SDS011;8870;50.950;11.762;2023-04-29T18:39:02;4.28;;;3.58;;
17504;SDS011;8870;50.950;11.762;2023-04-29T18:44:34;3.80;;;3.50;;
17504;SDS011;8870;50.950;11.762;2023-04-29T18:49:53;3.78;;;3.45;;
17504;SDS011;8870;50.950;11.762;2023-04-29T18:55:27;4.18;;;3.50;;
17504;SDS011;8870;50.950;11.762;2023-04-29T19:00:46;7.40;;;3.58;;
17504;SDS011;8870;50.950;11.762;2023-04-29T19:06:18;4.28;;;3.60;;
17504;SDS011;8870;50.950;11.762;2023-04-29T19:11:51;4.03;;;3.63;;
17504;SDS011;8870;50.950;11.762;2023-04-29T19:17:10;4.57;;;3.80;;
17504;SDS011;8870;50.950;11.762;2023-04-29T19:22:42;5.30;;;3.50;;
17504;SDS011;8870;50.950;11.762;2023-04-29T19:28:02;7.20;;;4.00;;
17504;SDS011;8870;50.950;11.762;2023-04-29T19:33:34;4.20;;;3.70;;
17504;SDS011;8870;50.950;11.762;2023-04-29T19:38:52;3.95;;;3.60;;
17504;SDS011;8870;50.950;11.762;2023-04-29T19:44:27;4.10;;;3.50;;
17504;SDS011;8870;50.950;11.762;2023-04-29T19:49:46;5.50;;;3.83;;
17504;SDS011;8870;50.950;11.762;2023-04-29T19:55:17;4.63;;;4.07;;
17504;SDS011;8870;50.950;11.762;2023-04-29T20:00:37;4.18;;;3.78;;
17504;SDS011;8870;50.950;11.762;2023-04-29T20:06:09;5.50;;;4.20;;
17504;SDS011;8870;50.950;11.762;2023-04-29T20:11:40;4.33;;;3.70;;
17504;SDS011;8870;50.950;11.762;2023-04-29T20:17:00;6.78;;;4.00;;
17504;SDS011;8870;50.950;11.762;2023-04-29T20:22:33;5.75;;;3.42;;
17504;SDS011;8870;50.950;11.762;2023-04-29T20:27:51;4.82;;;3.80;;
17504;SDS011;8870;50.950;11.762;2023-04-29T20:33:24;4.80;;;3.92;;
17504;SDS011;8870;50.950;11.762;2023-04-29T20:38:43;5.22;;;3.90;;
17504;SDS011;8870;50.950;11.762;2023-04-29T20:44:15;5.43;;;4.05;;
17504;SDS011;8870;50.950;11.762;2023-04-29T20:49:36;4.25;;;3.83;;
17504;SDS011;8870;50.950;11.762;2023-04-29T20:55:09;5.50;;;4.00;;
17504;SDS011;8870;50.950;11.762;2023-04-29T21:00:28;4.20;;;3.80;;
17504;SDS011;8870;50.950;11.762;2023-04-29T21:06:04;5.78;;;3.90;;
17504;SDS011;8870;50.950;11.762;2023-04-29T21:11:22;4.60;;;4.10;;
17504;SDS011;8870;50.950;11.762;2023-04-29T21:16:53;5.30;;;4.00;;
17504;SDS011;8870;50.950;11.762;2023-04-29T21:22:15;5.20;;;3.85;;
17504;SDS011;8870;50.950;11.762;2023-04-29T21:27:46;5.00;;;4.00;;
17504;SDS011;8870;50.950;11.762;2023-04-29T21:33:05;5.55;;;3.70;;
17504;SDS011;8870;50.950;11.762;2023-04-29T21:38:41;5.32;;;4.20;;
17504;SDS011;8870;50.950;11.762;2023-04-29T21:44:00;4.63;;;4.00;;
17504;SDS011;8870;50.950;11.762;2023-04-29T21:49:32;6.65;;;4.00;;
17504;SDS011;8870;50.950;11.762;2023-04-29T21:54:59;6.00;;;3.85;;
17504;SDS011;8870;50.950;11.762;2023-04-29T22:00:31;5.70;;;4.20;;
17504;SDS011;8870;50.950;11.762;2023-04-29T22:05:57;7.13;;;4.20;;
17504;SDS011;8870;50.950;11.762;2023-04-29T22:11:31;5.50;;;4.00;;
17504;SDS011;8870;50.950;11.762;2023-04-29T22:16:49;6.00;;;4.20;;
17504;SDS011;8870;50.950;11.762;2023-04-29T22:22:21;4.97;;;4.20;;
17504;SDS011;8870;50.950;11.762;2023-04-29T22:27:43;4.47;;;3.97;;
17504;SDS011;8870;50.950;11.762;2023-04-29T22:33:15;5.82;;;4.30;;
17504;SDS011;8870;50.950;11.762;2023-04-29T22:38:46;4.40;;;4.00;;
17504;SDS011;8870;50.950;11.762;2023-04-29T22:44:07;5.50;;;4.47;;
17504;SDS011;8870;50.950;11.762;2023-04-29T22:49:39;5.72;;;4.43;;
17504;SDS011;8870;50.950;11.762;2023-04-29T22:54:57;6.05;;;4.25;;
17504;SDS011;8870;50.950;11.762;2023-04-29T23:00:32;5.40;;;4.40;;
17504;SDS011;8870;50.950;11.762;2023-04-29T23:05:51;6.03;;;4.80;;
17504;SDS011;8870;50.950;11.762;2023-04-29T23:11:27;5.10;;;4.28;;
17504;SDS011;8870;50.950;11.762;2023-04-29T23:16:48;4.88;;;4.38;;
17504;SDS011;8870;50.950;11.762;2023-04-29T23:22:20;5.68;;;4.72;;
17504;SDS011;8870;50.950;11.762;2023-04-29T23:27:38;5.45;;;4.95;;
17504;SDS011;8870;50.950;11.762;2023-04-29T23:33:12;5.45;;;4.70;;
17504;SDS011;8870;50.950;11.762;2023-04-29T23:38:44;5.28;;;4.75;;
17504;SDS011;8870;50.950;11.762;2023-04-29T23:44:02;5.82;;;4.88;;
17504;SDS011;8870;50.950;11.762;2023-04-29T23:49:35;7.13;;;5.40;;
17504;SDS011;8870;50.950;11.762;2023-04-29T23:54:54;6.80;;;5.47;;
